createdAt,value
2023-02-19T00:01:22.304Z,22.02
2023-02-19T00:06:29.099Z,17.13
2023-02-19T00:11:33.850Z,15.77
2023-02-19T00:16:39.881Z,15.98
2023-02-19T00:21:44.680Z,20.17
2023-02-19T00:26:49.148Z,21.35
2023-02-19T00:31:52.545Z,20.10
2023-02-19T00:36:57.392Z,21.80
2023-02-19T00:42:01.160Z,18.77
2023-02-19T00:47:04.322Z,19.42
2023-02-19T00:52:08.951Z,20.30
2023-02-19T00:57:12.197Z,20.58
2023-02-19T01:02:15.366Z,24.20
2023-02-19T01:07:20.586Z,21.65
2023-02-19T01:12:25.834Z,26.15
2023-02-19T01:17:29.275Z,26.65
2023-02-19T01:22:33.978Z,21.45
2023-02-19T01:27:37.281Z,26.63
2023-02-19T01:32:40.631Z,26.00
2023-02-19T01:37:45.292Z,25.73
2023-02-19T01:42:50.293Z,23.77
2023-02-19T01:48:10.283Z,20.27
2023-02-19T01:53:18.702Z,23.17
2023-02-19T01:58:22.090Z,24.52
2023-02-19T02:03:26.265Z,20.95
2023-02-19T02:08:50.463Z,22.60
2023-02-19T02:13:56.261Z,19.98
2023-02-19T02:19:07.219Z,22.45
2023-02-19T02:24:29.985Z,22.77
2023-02-19T02:30:07.315Z,23.13
2023-02-19T02:35:19.351Z,20.40
2023-02-19T02:40:22.971Z,13.57
2023-02-19T02:45:38.157Z,20.42
2023-02-19T02:50:45.629Z,16.77
2023-02-19T02:55:53.322Z,19.95
2023-02-19T03:01:18.126Z,19.83
2023-02-19T03:06:25.457Z,16.83
2023-02-19T03:11:49.667Z,16.85
2023-02-19T03:17:18.466Z,19.27
2023-02-19T03:22:26.737Z,18.77
2023-02-19T03:27:33.537Z,17.90
2023-02-19T03:32:41.547Z,18.55
2023-02-19T03:37:48.374Z,18.55
2023-02-19T03:42:57.957Z,13.82
2023-02-19T03:48:14.985Z,15.65
2023-02-19T03:53:28.937Z,18.33
2023-02-19T03:58:36.313Z,18.30
2023-02-19T04:03:44.291Z,21.55
2023-02-19T04:08:52.026Z,21.45
2023-02-19T04:13:59.892Z,23.25
2023-02-19T04:19:09.111Z,19.55
2023-02-19T04:24:15.697Z,20.02
2023-02-19T04:29:18.952Z,17.50
2023-02-19T04:34:23.585Z,18.83
2023-02-19T04:39:26.998Z,14.15
2023-02-19T04:44:30.272Z,17.00
2023-02-19T04:49:35.275Z,16.70
2023-02-19T04:54:38.731Z,24.80
2023-02-19T04:59:42.071Z,18.55
2023-02-19T05:04:46.687Z,17.35
2023-02-19T05:09:49.943Z,16.77
2023-02-19T05:14:53.365Z,14.35
2023-02-19T05:19:57.960Z,19.13
2023-02-19T05:25:01.168Z,17.08
2023-02-19T05:30:04.635Z,17.65
2023-02-19T05:35:09.934Z,18.67
2023-02-19T05:40:13.410Z,16.05
2023-02-19T05:45:16.741Z,19.08
2023-02-19T05:50:21.339Z,21.90
2023-02-19T05:55:24.438Z,17.02
2023-02-19T06:00:27.979Z,15.38
2023-02-19T06:05:32.697Z,20.40
2023-02-19T06:10:37.387Z,14.57
2023-02-19T06:15:41.165Z,13.18
2023-02-19T06:20:46.019Z,15.07
2023-02-19T06:25:49.389Z,18.55
2023-02-19T06:30:52.834Z,16.38
2023-02-19T06:36:00.400Z,16.33
2023-02-19T06:41:04.512Z,17.05
2023-02-19T06:46:09.424Z,15.52
2023-02-19T06:51:15.922Z,17.10
2023-02-19T06:56:25.846Z,15.50
2023-02-19T07:01:30.686Z,18.58
2023-02-19T07:06:36.146Z,15.43
2023-02-19T07:11:41.042Z,16.08
2023-02-19T07:16:44.786Z,16.00
2023-02-19T07:21:49.529Z,15.85
2023-02-19T07:26:52.844Z,14.43
2023-02-19T07:31:56.201Z,13.13
2023-02-19T07:37:00.783Z,14.38
2023-02-19T07:42:04.153Z,17.25
2023-02-19T07:47:07.360Z,15.45
2023-02-19T07:52:12.010Z,14.85
2023-02-19T07:57:15.167Z,11.90
2023-02-19T08:06:33.309Z,14.80
2023-02-19T08:11:54.590Z,13.73
2023-02-19T08:16:58.135Z,14.73
2023-02-19T08:22:02.832Z,18.27
2023-02-19T08:27:06.040Z,16.35
2023-02-19T08:32:09.429Z,14.60
2023-02-19T08:37:14.490Z,15.32
2023-02-19T08:42:17.912Z,17.40
2023-02-19T08:47:21.178Z,14.48
2023-02-19T08:52:25.985Z,16.05
2023-02-19T08:57:29.705Z,18.08
2023-02-19T09:02:32.935Z,18.95
2023-02-19T09:07:37.573Z,14.65
2023-02-19T09:12:41.511Z,17.83
2023-02-19T09:17:45.026Z,16.42
2023-02-19T09:22:49.743Z,16.85
2023-02-19T09:27:56.309Z,20.20
2023-02-19T09:32:59.512Z,17.33
2023-02-19T09:38:04.167Z,13.35
2023-02-19T09:43:09.103Z,17.92
2023-02-19T09:48:13.982Z,15.38
2023-02-19T09:53:23.045Z,17.60
2023-02-19T09:58:30.267Z,15.25
2023-02-19T10:03:39.315Z,15.07
2023-02-19T10:08:46.870Z,17.35
2023-02-19T10:13:54.553Z,17.90
2023-02-19T10:18:58.306Z,17.00
2023-02-19T10:24:05.846Z,17.23
2023-02-19T10:29:10.880Z,16.58
2023-02-19T10:34:22.291Z,17.85
2023-02-19T10:39:42.359Z,15.65
2023-02-19T10:44:47.740Z,15.00
2023-02-19T10:49:52.534Z,15.23
2023-02-19T10:55:14.817Z,19.13
2023-02-19T11:00:24.377Z,16.70
2023-02-19T11:05:27.845Z,13.68
2023-02-19T11:10:38.685Z,16.48
2023-02-19T11:15:42.692Z,15.85
2023-02-19T11:20:51.243Z,18.92
2023-02-19T11:25:57.795Z,18.38
2023-02-19T11:31:32.443Z,17.40
2023-02-19T11:36:37.263Z,17.25
2023-02-19T11:42:16.561Z,18.15
2023-02-19T11:47:49.590Z,16.05
2023-02-19T11:53:05.661Z,16.48
2023-02-19T11:58:34.364Z,19.20
2023-02-19T12:03:57.053Z,21.23
2023-02-19T12:09:34.690Z,12.67
2023-02-19T12:14:58.275Z,17.20
2023-02-19T12:25:42.043Z,15.43
2023-02-19T12:31:04.082Z,28.90
2023-02-19T12:36:18.968Z,19.95
2023-02-19T12:41:33.937Z,21.48
2023-02-19T12:46:41.069Z,19.02
2023-02-19T12:51:49.004Z,19.05
2023-02-19T12:56:59.289Z,19.40
2023-02-19T13:02:15.066Z,19.90
2023-02-19T13:07:22.488Z,18.55
2023-02-19T13:12:30.405Z,17.13
2023-02-19T13:17:41.471Z,17.75
2023-02-19T13:23:05.447Z,17.98
2023-02-19T13:28:27.136Z,20.35
2023-02-19T13:33:45.196Z,18.38
2023-02-19T13:38:50.385Z,21.08
2023-02-19T13:44:01.853Z,20.00
2023-02-19T13:49:41.228Z,24.67
2023-02-19T13:54:44.505Z,25.27
2023-02-19T13:59:48.444Z,23.83
2023-02-19T14:04:56.102Z,23.48
2023-02-19T14:10:01.886Z,23.55
2023-02-19T14:15:51.388Z,22.58
2023-02-19T14:21:09.083Z,20.98
2023-02-19T14:26:13.002Z,23.25
2023-02-19T14:31:31.417Z,21.15
2023-02-19T14:36:49.002Z,19.33
2023-02-19T14:41:54.331Z,24.73
2023-02-19T14:47:01.977Z,19.08
2023-02-19T14:52:12.171Z,22.23
2023-02-19T14:57:20.041Z,21.60
2023-02-19T15:02:26.061Z,21.70
2023-02-19T15:07:34.721Z,20.25
2023-02-19T15:12:47.244Z,25.05
2023-02-19T15:17:52.542Z,20.95
2023-02-19T15:22:59.747Z,18.60
2023-02-19T15:28:21.421Z,20.65
2023-02-19T15:33:24.911Z,23.98
2023-02-19T15:38:30.083Z,24.55
2023-02-19T15:43:41.873Z,21.30
2023-02-19T15:48:50.406Z,23.38
2023-02-19T15:54:03.360Z,23.77
2023-02-19T15:59:14.775Z,19.83
2023-02-19T16:04:19.841Z,24.30
2023-02-19T16:09:29.164Z,23.17
2023-02-19T16:14:34.043Z,18.63
2023-02-19T16:19:47.665Z,26.38
2023-02-19T16:24:56.357Z,21.88
2023-02-19T16:30:00.503Z,25.50
2023-02-19T16:35:03.802Z,28.15
2023-02-19T16:40:41.003Z,25.70
2023-02-19T16:45:47.434Z,22.10
2023-02-19T16:50:51.352Z,24.38
2023-02-19T16:55:54.762Z,26.77
2023-02-19T17:00:59.702Z,24.42
2023-02-19T17:06:03.124Z,26.75
2023-02-19T17:11:09.136Z,24.95
2023-02-19T17:16:19.978Z,23.10
2023-02-19T17:21:25.221Z,24.25
2023-02-19T17:26:31.283Z,27.27
2023-02-19T17:31:36.376Z,28.95
2023-02-19T17:36:40.602Z,25.70
2023-02-19T17:41:44.651Z,24.85
2023-02-19T17:46:49.734Z,24.92
2023-02-19T17:51:52.939Z,25.88
2023-02-19T17:56:56.566Z,26.90
2023-02-19T18:02:03.306Z,36.67
2023-02-19T18:07:06.477Z,31.45
2023-02-19T18:12:10.477Z,26.90
2023-02-19T18:17:16.382Z,26.95
2023-02-19T18:22:19.805Z,24.20
2023-02-19T18:27:23.715Z,23.00
2023-02-19T18:32:29.061Z,32.35
2023-02-19T18:37:34.012Z,27.60
2023-02-19T18:42:37.557Z,24.80
2023-02-19T18:47:42.533Z,24.42
2023-02-19T18:52:47.178Z,27.35
2023-02-19T18:57:50.753Z,29.92
2023-02-19T19:02:59.616Z,30.65
2023-02-19T19:08:02.878Z,28.27
2023-02-19T19:13:06.728Z,26.80
2023-02-19T19:18:11.638Z,29.65
2023-02-19T19:23:15.220Z,27.98
2023-02-19T19:28:18.632Z,27.42
2023-02-19T19:33:23.405Z,28.38
2023-02-19T19:38:26.909Z,27.30
2023-02-19T19:43:31.264Z,27.20
2023-02-19T19:48:36.222Z,27.20
2023-02-19T19:53:39.563Z,29.45
2023-02-19T19:58:43.034Z,29.25
2023-02-19T20:03:47.718Z,30.73
2023-02-19T20:08:50.959Z,25.27
2023-02-19T20:13:54.200Z,27.73
2023-02-19T20:18:59.044Z,27.00
2023-02-19T20:24:03.166Z,26.83
2023-02-19T20:29:07.239Z,28.23
2023-02-19T20:34:11.944Z,24.50
2023-02-19T20:39:16.424Z,30.52
2023-02-19T20:44:20.763Z,25.75
2023-02-19T20:49:27.500Z,25.45
2023-02-19T20:54:33.237Z,29.45
2023-02-19T20:59:38.687Z,30.00
2023-02-19T21:04:44.071Z,26.60
2023-02-19T21:09:47.452Z,28.55
2023-02-19T21:14:50.875Z,29.15
2023-02-19T21:19:55.673Z,28.80
2023-02-19T21:24:59.110Z,30.00
2023-02-19T21:30:02.477Z,29.42
2023-02-19T21:35:09.120Z,30.80
2023-02-19T21:40:13.860Z,29.70
2023-02-19T21:45:17.590Z,29.88
2023-02-19T21:50:22.717Z,26.48
2023-02-19T21:55:25.944Z,26.17
2023-02-19T22:00:29.232Z,30.65
2023-02-19T22:05:34.140Z,30.05
2023-02-19T22:10:39.431Z,25.80
2023-02-19T22:15:42.804Z,29.88
2023-02-19T22:20:47.740Z,27.42
2023-02-19T22:25:51.400Z,32.28
2023-02-19T22:30:54.816Z,28.65
2023-02-19T22:35:59.609Z,29.70
2023-02-19T22:41:04.172Z,29.58
2023-02-19T22:46:11.752Z,35.42
2023-02-19T22:51:17.994Z,29.33
2023-02-19T22:56:23.095Z,36.15
2023-02-19T23:01:26.688Z,27.48
2023-02-19T23:06:33.468Z,30.52
2023-02-19T23:11:39.320Z,28.35
2023-02-19T23:16:42.798Z,27.95
2023-02-19T23:21:47.437Z,27.85
2023-02-19T23:26:52.880Z,30.85
2023-02-19T23:31:56.530Z,29.20
2023-02-19T23:37:02.448Z,32.50
2023-02-19T23:42:05.744Z,30.52
2023-02-19T23:47:08.938Z,32.50
2023-02-19T23:52:13.491Z,37.65
2023-02-19T23:57:16.949Z,29.98
